• vieta
  • image
  • image
  • image
mod_vvisit_countermod_vvisit_countermod_vvisit_countermod_vvisit_countermod_vvisit_countermod_vvisit_counter
mod_vvisit_counterŠiandien503
mod_vvisit_counterVakar534
mod_vvisit_counterŠią savaitę1037
mod_vvisit_counterPraėjusią savaitę5522
mod_vvisit_counterŠį mėnesį11522
mod_vvisit_counterPraėjusį mėnesį23031
mod_vvisit_counterViso997479

Mes turime: 7 svečius, 3 bots online
Jūsų IP: 54.161.116.225
 , 
Šiandien: Spa 16, 2018
Oro uostas / Informacija keleiviams / Ribotos judėsenos asmenims

Ribotos judėsenos asmenims

 

Dėl rūpimos informacijos prašome kreiptis į:

 

Aviacijos saugumo skyriaus vadovas

Algirdas Ulčinas

Tel.: +370 41 54 20 05

Faks.: +370 41 54 20 06

Mob.: +370 686 24431

el.paštas: Šis el.pašto adresas yra apsaugotas nuo Spam'o, jums reikia įjungti Javaskriptą, kad matytumėte tai

 

Šiandien

Antradienis, 16 Spalis 2018

Orų prognozė aviacijai

[source: ADDS]
METAR
EYSA 161520Z 18004KT CAVOK 14/07 Q1022 BLU NOSIG =
TAF EYSA 161404Z 1615/1624 19008KT CAVOK
TAF
TAF EYSA 161404Z 1615/1624 19008KT CAVOK =
SR / SS: 05:00 / 15:26 UTC (EYSA 2018-10-16)

Paieška

Lankytojai

Mes turime 10 svečius online

tic logo lt